Silex, Missouri
Current Conditions -  °F | °C
As of 6:54 PM on Monday 20 Oct 2014 (Local Time) from KSET Reporting Station
Clear Clear  
Wind Chill: 61°   Ceiling: Unl
Heat Index: 61°   Visibility: 10mi
Dew Point: 45°   Wind: 7mph
Humidity: 56%   Direction: 330°NNW
Pressure: 29.98"   Gusts: NA
Location:  39.12°N, 91.05°W
Report Text: KSET 202354Z AUTO 33006KT 10SM CLR 16/07 A2998 RMK AO1 SLP152 T01610072 10222 20161 53014
Loading
Personal Weather Stations






























Interactive Weather Map
Tropical Storm Tracking
New forecast layout! Learn more

10-Day Weather Forecast

Advertisements
Track Severe Weather on mobile